Time;durP1;ratioP1;P1;durP2;ratioP2;P2;SDS_P1;SDS_P2;PMS_P1;PMS_P2;Temp;Humidity;BMP_temperature;BMP_pressure;BME280_temperature;BME280_humidity;BME280_pressure;Samples;Min_cycle;Max_cycle;Signal;HPM_P1;HPM_P2
2022/12/20 00:01:44;;;;;;;;;;;;;;;10.14;81.29;101338.97;5081932;28;19916;-58
2022/12/20 00:04:09;;;;;;;;;;;;;;;10.18;80.96;101327.88;5086971;28;19923;-60
2022/12/20 00:06:35;;;;;;;;;;;;;;;10.19;81.22;101332.22;5087214;28;20363;-59
2022/12/20 00:09:01;;;;;;;;;;;;;;;10.21;80.84;101324.94;5083171;28;19969;-57
2022/12/20 00:11:27;;;;;;;;;;;;;;;10.23;80.88;101338.91;5082120;28;20648;-59
2022/12/20 00:13:53;;;;;;;;;;;;;;;10.22;80.70;101339.88;5081243;28;19934;-61
2022/12/20 00:16:20;;;;;;;;;;;;;;;10.23;80.85;101330.09;5081562;28;19916;-57
2022/12/20 00:18:45;;;;;;;;;;;;;;;10.26;80.61;101328.97;5085585;28;19954;-59
2022/12/20 00:21:12;;;;;;;;;;;;;;;10.28;80.43;101317.19;5082696;28;20444;-59
2022/12/20 00:23:37;;;;;;;;;;;;;;;10.28;80.75;101334.94;5088299;28;19923;-59
2022/12/20 00:26:03;;;;;;;;;;;;;;;10.29;80.58;101334.78;5078543;28;19924;-59
2022/12/20 00:28:28;;;;;;;;;;;;;;;10.31;80.30;101324.84;5081644;28;19916;-59
2022/12/20 00:30:53;;;;;;;;;;;;;;;10.35;80.09;101317.38;5071751;28;19920;-55
2022/12/20 00:33:18;;;;;;;;;;;;;;;10.36;80.28;101319.88;5087932;28;19923;-58
2022/12/20 00:35:44;;;;;;;;;;;;;;;10.36;80.11;101319.88;5092194;28;20006;-59
2022/12/20 00:38:09;;;;;;;;;;;;;;;10.39;79.92;101310.75;5082951;28;19924;-58
2022/12/20 00:40:34;;;;;;;;;;;;;;;10.38;79.88;101301.13;5079047;28;20011;-58
2022/12/20 00:42:59;;;;;;;;;;;;;;;10.38;79.76;101301.97;5085511;28;19932;-58
2022/12/20 00:45:24;;;;;;;;;;;;;;;10.40;79.90;101297.34;5082616;28;19923;-58
2022/12/20 00:47:49;;;;;;;;;;;;;;;10.43;79.95;101290.91;5089393;28;20002;-57
2022/12/20 00:50:15;;;;;;;;;;;;;;;10.43;80.08;101282.94;5084522;28;19923;-57
2022/12/20 00:52:40;;;;;;;;;;;;;;;10.43;79.68;101288.25;5091377;28;19940;-60
2022/12/20 00:55:05;;;;;;;;;;;;;;;10.47;79.73;101281.63;5084572;28;19912;-59
2022/12/20 00:57:30;;;;;;;;;;;;;;;10.52;79.76;101292.59;5084478;28;20363;-59
2022/12/20 00:59:55;;;;;;;;;;;;;;;10.54;79.30;101295.91;5088407;28;19928;-58
2022/12/20 01:02:20;;;;;;;;;;;;;;;10.55;79.35;101287.78;5088745;28;19947;-57
2022/12/20 01:04:47;;;;;;;;;;;;;;;10.54;79.34;101295.91;5085761;28;19939;-57
2022/12/20 01:07:13;;;;;;;;;;;;;;;10.57;79.32;101294.78;5084739;28;19917;-62
2022/12/20 01:09:38;;;;;;;;;;;;;;;10.59;79.50;101292.78;5079979;28;19924;-60
2022/12/20 01:12:03;;;;;;;;;;;;;;;10.61;79.33;101306.72;5088820;28;19920;-57
2022/12/20 01:14:29;;;;;;;;;;;;;;;10.60;79.60;101297.94;5088817;28;19924;-60
2022/12/20 01:16:54;;;;;;;;;;;;;;;10.57;80.31;101292.13;5084536;28;19966;-57
2022/12/20 01:19:19;;;;;;;;;;;;;;;10.50;81.03;101302.53;5086192;28;19936;-59
2022/12/20 01:21:44;;;;;;;;;;;;;;;10.44;81.29;101309.34;5087625;28;19916;-59
2022/12/20 01:24:14;;;;;;;;;;;;;;;10.39;82.18;101308.94;5085023;28;19920;-58
2022/12/20 01:26:39;;;;;;;;;;;;;;;10.35;82.57;101312.06;5085873;28;19920;-60
2022/12/20 01:29:04;;;;;;;;;;;;;;;10.29;83.44;101308.22;5080817;28;19993;-59
2022/12/20 01:31:30;;;;;;;;;;;;;;;10.24;84.34;101294.59;5086361;28;19916;-60
2022/12/20 01:33:55;;;;;;;;;;;;;;;10.14;85.04;101310.63;5089257;28;19916;-59
2022/12/20 01:36:25;;;;;;;;;;;;;;;10.08;86.22;101299.78;5087014;28;19912;-59
2022/12/20 01:38:54;;;;;;;;;;;;;;;9.96;87.21;101320.44;5096607;28;19931;-58
2022/12/20 01:41:20;;;;;;;;;;;;;;;9.89;88.25;101295.50;5087590;28;19955;-63
2022/12/20 01:43:51;;;;;;;;;;;;;;;9.84;88.56;101290.69;5081132;28;19955;-60
2022/12/20 01:46:18;;;;;;;;;;;;;;;9.78;89.96;101295.75;5085846;28;19916;-58
2022/12/20 01:48:47;;;;;;;;;;;;;;;9.73;90.48;101293.56;5102101;28;19915;-59
2022/12/20 01:51:12;;;;;;;;;;;;;;;9.66;90.93;101294.34;5088961;28;19912;-59
2022/12/20 01:53:38;;;;;;;;;;;;;;;9.61;91.96;101281.53;5083742;28;19924;-61
2022/12/20 01:56:05;;;;;;;;;;;;;;;9.55;93.17;101284.81;5079949;28;19924;-57
2022/12/20 01:58:31;;;;;;;;;;;;;;;9.50;93.51;101268.50;5087483;28;19924;-59
2022/12/20 02:00:56;;;;;;;;;;;;;;;9.47;93.99;101269.63;5077615;28;19912;-60
2022/12/20 02:03:21;;;;;;;;;;;;;;;9.45;94.74;101253.06;5088956;28;19923;-59
2022/12/20 02:05:47;;;;;;;;;;;;;;;9.43;95.11;101252.38;5087584;28;19967;-58
2022/12/20 02:08:13;;;;;;;;;;;;;;;9.42;95.13;101260.50;5088961;28;20002;-60
2022/12/20 02:10:57;;;;;;;;;;;;;;;9.41;95.80;101259.66;5082026;28;19939;-59
2022/12/20 02:13:41;;;;;;;;;;;;;;;9.42;95.85;101244.59;5086844;28;19916;-60
2022/12/20 02:16:06;;;;;;;;;;;;;;;9.46;96.16;101240.63;5085565;28;19916;-59
2022/12/20 02:18:31;;;;;;;;;;;;;;;9.48;96.17;101222.75;5084860;28;19954;-59
2022/12/20 02:21:07;;;;;;;;;;;;;;;9.49;96.41;101235.03;5085658;28;19920;-60
2022/12/20 02:23:50;;;;;;;;;;;;;;;9.50;96.58;101224.25;5087708;28;19965;-60
2022/12/20 02:26:34;;;;;;;;;;;;;;;9.53;96.76;101218.66;5088829;28;19915;-58
2022/12/20 02:29:18;;;;;;;;;;;;;;;9.56;96.47;101223.66;5082407;28;19916;-62
2022/12/20 02:31:47;;;;;;;;;;;;;;;9.57;96.75;101227.16;5077639;28;19930;-60
2022/12/20 02:34:13;;;;;;;;;;;;;;;9.57;96.71;101221.84;5084391;28;19915;-59
2022/12/20 02:36:38;;;;;;;;;;;;;;;9.57;96.38;101213.91;5081777;28;20383;-60
2022/12/20 02:39:03;;;;;;;;;;;;;;;9.57;96.51;101211.25;5085545;28;19974;-61
2022/12/20 02:41:32;;;;;;;;;;;;;;;9.56;96.46;101205.13;5086521;28;19920;-60
2022/12/20 02:46:47;;;;;;;;;;;;;;;9.55;96.15;101210.56;5084773;28;19961;-60
2022/12/20 02:49:15;;;;;;;;;;;;;;;9.57;96.11;101200.66;5084555;28;19931;-60
2022/12/20 02:51:42;;;;;;;;;;;;;;;9.57;96.03;101212.06;5088297;28;20337;-59
2022/12/20 02:54:07;;;;;;;;;;;;;;;9.60;95.96;101206.47;5080910;28;19970;-59
2022/12/20 02:56:44;;;;;;;;;;;;;;;9.61;95.48;101197.53;5083637;28;20439;-59
2022/12/20 02:59:16;;;;;;;;;;;;;;;9.67;95.35;101203.19;5080160;28;20652;-60
2022/12/20 03:01:45;;;;;;;;;;;;;;;9.68;95.21;101194.25;5085977;28;19969;-59
2022/12/20 03:04:11;;;;;;;;;;;;;;;9.67;94.74;101205.84;5083852;28;19966;-59
2022/12/20 03:06:37;;;;;;;;;;;;;;;9.66;94.58;101207.66;5083904;28;19916;-57
2022/12/20 03:09:02;;;;;;;;;;;;;;;9.70;94.32;101200.22;5082143;28;19947;-60
2022/12/20 03:11:28;;;;;;;;;;;;;;;9.72;94.14;101192.94;5083743;28;19948;-60
2022/12/20 03:13:53;;;;;;;;;;;;;;;9.77;93.83;101198.59;5086861;28;20414;-60
2022/12/20 03:16:18;;;;;;;;;;;;;;;9.82;93.40;101193.66;5077906;28;20273;-59
2022/12/20 03:18:44;;;;;;;;;;;;;;;9.85;93.28;101190.72;5084605;28;19974;-62
2022/12/20 03:21:10;;;;;;;;;;;;;;;9.89;92.76;101202.66;5084460;28;20014;-61
2022/12/20 03:23:35;;;;;;;;;;;;;;;9.91;92.52;101198.03;5085655;28;20332;-59
2022/12/20 03:26:00;;;;;;;;;;;;;;;9.97;92.54;101199.22;5091016;28;19916;-57
2022/12/20 03:28:25;;;;;;;;;;;;;;;9.99;92.05;101199.88;5091928;28;19938;-58
2022/12/20 03:30:50;;;;;;;;;;;;;;;10.03;91.90;101191.44;5092645;28;19946;-59
2022/12/20 03:33:15;;;;;;;;;;;;;;;10.04;91.58;101185.16;5082116;28;19923;-59
2022/12/20 03:35:41;;;;;;;;;;;;;;;10.03;91.25;101178.19;5084774;28;20010;-59
2022/12/20 03:38:06;;;;;;;;;;;;;;;10.05;91.31;101184.16;5076014;28;19936;-58
2022/12/20 03:40:31;;;;;;;;;;;;;;;10.14;91.08;101190.38;5082059;28;19931;-60
2022/12/20 03:42:56;;;;;;;;;;;;;;;10.21;90.76;101194.06;5086838;28;19970;-58
2022/12/20 03:45:22;;;;;;;;;;;;;;;10.22;90.39;101193.06;5076482;28;19917;-57
2022/12/20 03:47:47;;;;;;;;;;;;;;;10.19;90.31;101202.16;5083404;28;19919;-58
2022/12/20 03:50:12;;;;;;;;;;;;;;;10.23;90.18;101208.00;5080499;28;19972;-59
2022/12/20 03:52:37;;;;;;;;;;;;;;;10.24;89.83;101199.06;5087161;28;20403;-59
2022/12/20 03:55:03;;;;;;;;;;;;;;;10.30;89.64;101193.09;5081384;28;19924;-58
2022/12/20 03:57:28;;;;;;;;;;;;;;;10.35;89.42;101193.44;5081714;28;19920;-58
2022/12/20 03:59:53;;;;;;;;;;;;;;;10.42;89.54;101191.84;5079504;28;19927;-58
2022/12/20 04:02:20;;;;;;;;;;;;;;;10.43;89.08;101193.50;5087527;28;19912;-59
2022/12/20 04:04:45;;;;;;;;;;;;;;;10.43;88.96;101182.03;5084466;28;19912;-59
2022/12/20 04:07:10;;;;;;;;;;;;;;;10.45;89.00;101193.34;5086661;28;20346;-60
2022/12/20 04:09:35;;;;;;;;;;;;;;;10.47;88.77;101186.88;5084414;28;20010;-57
2022/12/20 04:12:01;;;;;;;;;;;;;;;10.52;88.74;101194.34;5084265;28;20367;-61
2022/12/20 04:14:26;;;;;;;;;;;;;;;10.53;88.66;101190.69;5079968;28;20023;-58
2022/12/20 04:16:51;;;;;;;;;;;;;;;10.52;88.21;101191.69;5084331;28;20028;-61
2022/12/20 04:19:16;;;;;;;;;;;;;;;10.60;88.44;101202.31;5081073;28;19963;-59
2022/12/20 04:21:41;;;;;;;;;;;;;;;10.63;88.08;101195.84;5086583;28;19922;-60
2022/12/20 04:24:07;;;;;;;;;;;;;;;10.66;87.96;101196.34;5083813;28;20395;-59
2022/12/20 04:26:32;;;;;;;;;;;;;;;10.73;87.81;101193.91;5080934;28;19912;-59
2022/12/20 04:28:57;;;;;;;;;;;;;;;10.75;87.79;101189.25;5081640;28;20031;-60
2022/12/20 04:31:23;;;;;;;;;;;;;;;10.73;87.77;101173.50;5077204;28;19923;-58
2022/12/20 04:33:48;;;;;;;;;;;;;;;10.73;87.60;101181.47;5079269;28;19921;-59
2022/12/20 04:36:14;;;;;;;;;;;;;;;10.76;87.08;101167.84;5089212;28;19927;-61
2022/12/20 04:38:39;;;;;;;;;;;;;;;10.78;87.35;101176.47;5083717;28;19920;-61
2022/12/20 04:41:05;;;;;;;;;;;;;;;10.80;86.87;101178.97;5083442;28;19978;-57
2022/12/20 04:43:30;;;;;;;;;;;;;;;10.82;86.70;101174.31;5085924;28;19928;-59
2022/12/20 04:45:55;;;;;;;;;;;;;;;10.84;86.88;101180.31;5084756;28;20393;-57
2022/12/20 04:48:21;;;;;;;;;;;;;;;10.82;86.81;101182.28;5087752;28;19919;-58
2022/12/20 04:50:49;;;;;;;;;;;;;;;10.81;86.56;101173.50;5086916;28;19932;-57
2022/12/20 04:55:58;;;;;;;;;;;;;;;10.85;86.74;101180.13;5091624;28;19985;-59
2022/12/20 04:58:23;;;;;;;;;;;;;;;10.79;86.96;101178.16;5091194;28;19915;-59
2022/12/20 05:00:51;;;;;;;;;;;;;;;10.78;87.11;101168.50;5087017;28;20007;-59
2022/12/20 05:03:16;;;;;;;;;;;;;;;10.74;87.24;101176.97;5090126;28;19916;-61
2022/12/20 05:05:41;;;;;;;;;;;;;;;10.74;86.98;101163.69;5087611;28;19919;-60
2022/12/20 05:08:06;;;;;;;;;;;;;;;10.76;87.37;101161.69;5082619;28;20389;-60
2022/12/20 05:10:31;;;;;;;;;;;;;;;10.77;87.24;101166.84;5086198;28;19923;-59
2022/12/20 05:12:56;;;;;;;;;;;;;;;10.80;86.78;101158.56;5088953;28;19975;-60
2022/12/20 05:15:22;;;;;;;;;;;;;;;10.81;86.92;101151.41;5086741;28;19978;-58
2022/12/20 05:17:47;;;;;;;;;;;;;;;10.78;86.93;101146.44;5081499;28;19939;-57
2022/12/20 05:20:12;;;;;;;;;;;;;;;10.79;86.86;101145.44;5085905;28;19923;-60
2022/12/20 05:28:05;;;;;;;;;;;;;;;10.82;86.72;101119.38;5083989;28;20509;-60
2022/12/20 05:30:30;;;;;;;;;;;;;;;10.85;87.00;101119.03;5079093;28;19916;-60
2022/12/20 05:32:55;;;;;;;;;;;;;;;10.88;86.81;101133.81;5085923;28;20368;-59
2022/12/20 05:35:21;;;;;;;;;;;;;;;10.89;87.03;101135.47;5089554;28;19949;-59
2022/12/20 05:37:46;;;;;;;;;;;;;;;10.89;86.87;101118.69;5082254;28;20561;-58
2022/12/20 05:40:11;;;;;;;;;;;;;;;10.88;87.14;101120.53;5085665;28;19916;-60
2022/12/20 05:42:37;;;;;;;;;;;;;;;10.84;87.22;101114.72;5083741;28;20022;-60
2022/12/20 05:45:03;;;;;;;;;;;;;;;10.82;87.20;101108.72;5084492;28;19927;-59
2022/12/20 05:47:29;;;;;;;;;;;;;;;10.83;87.37;101099.78;5090628;28;19920;-59
2022/12/20 05:49:54;;;;;;;;;;;;;;;10.84;87.36;101101.44;5084668;28;19981;-60
2022/12/20 05:52:20;;;;;;;;;;;;;;;10.88;87.44;101098.44;5085001;28;19963;-58
2022/12/20 05:54:45;;;;;;;;;;;;;;;10.86;87.30;101102.09;5079997;28;19919;-57
2022/12/20 05:57:10;;;;;;;;;;;;;;;10.90;87.33;101089.31;5086171;28;19994;-59
2022/12/20 05:59:35;;;;;;;;;;;;;;;10.90;87.02;101093.78;5079478;28;20693;-61
2022/12/20 06:02:01;;;;;;;;;;;;;;;10.90;86.73;101088.47;5082855;28;19916;-59
2022/12/20 06:04:26;;;;;;;;;;;;;;;10.92;86.96;101092.63;5084440;28;19984;-60
2022/12/20 06:06:51;;;;;;;;;;;;;;;10.92;86.86;101075.84;5083600;28;19939;-59
2022/12/20 06:09:17;;;;;;;;;;;;;;;10.94;86.77;101077.34;5085659;28;19916;-59
2022/12/20 06:11:42;;;;;;;;;;;;;;;10.90;86.65;101072.53;5081479;28;19916;-60
2022/12/20 06:14:07;;;;;;;;;;;;;;;10.88;86.88;101062.06;5088135;28;19919;-62
2022/12/20 06:16:32;;;;;;;;;;;;;;;10.89;86.73;101054.94;5087955;28;19916;-59
2022/12/20 06:18:57;;;;;;;;;;;;;;;10.88;86.80;101062.06;5085317;28;19924;-59
2022/12/20 06:21:23;;;;;;;;;;;;;;;10.83;86.64;101054.59;5081127;28;19923;-58
2022/12/20 06:23:48;;;;;;;;;;;;;;;10.83;86.44;101053.78;5089606;28;19912;-59
2022/12/20 06:26:13;;;;;;;;;;;;;;;10.81;86.34;101053.94;5087196;28;19916;-58
2022/12/20 06:28:41;;;;;;;;;;;;;;;10.83;86.68;101062.56;5086549;28;19923;-60
2022/12/20 06:31:07;;;;;;;;;;;;;;;10.81;86.32;101074.38;5088527;28;20329;-59
2022/12/20 06:33:32;;;;;;;;;;;;;;;10.79;86.37;101063.91;5084889;28;19916;-59
2022/12/20 06:35:58;;;;;;;;;;;;;;;10.81;86.15;101061.09;5090755;28;20295;-59
2022/12/20 06:38:24;;;;;;;;;;;;;;;10.82;86.12;101076.84;5083285;28;20018;-57
2022/12/20 06:40:49;;;;;;;;;;;;;;;10.81;85.86;101075.19;5083225;28;19923;-61
2022/12/20 06:43:14;;;;;;;;;;;;;;;10.81;85.71;101085.81;5079073;28;19947;-57
2022/12/20 06:45:39;;;;;;;;;;;;;;;10.80;85.55;101072.72;5085751;28;22032;-60
2022/12/20 06:48:05;;;;;;;;;;;;;;;10.79;85.25;101082.50;5088078;28;19916;-59
2022/12/20 06:50:30;;;;;;;;;;;;;;;10.80;85.05;101070.88;5084994;28;20369;-57
2022/12/20 06:52:55;;;;;;;;;;;;;;;10.80;84.93;101062.09;5084489;28;19912;-60
2022/12/20 06:55:20;;;;;;;;;;;;;;;10.79;85.09;101071.06;5088953;28;19965;-59
2022/12/20 06:57:45;;;;;;;;;;;;;;;10.78;84.77;101078.19;5087689;28;20388;-60
2022/12/20 07:00:11;;;;;;;;;;;;;;;10.81;84.70;101074.38;5089224;28;19976;-57
2022/12/20 07:02:36;;;;;;;;;;;;;;;10.82;84.53;101060.91;5085667;28;19970;-58
2022/12/20 07:05:02;;;;;;;;;;;;;;;10.82;84.30;101058.25;5088154;28;19918;-58
2022/12/20 07:07:27;;;;;;;;;;;;;;;10.82;84.11;101076.84;5080630;28;20019;-59
2022/12/20 07:09:52;;;;;;;;;;;;;;;10.80;83.81;101076.19;5077407;28;20716;-59
2022/12/20 07:12:17;;;;;;;;;;;;;;;10.83;83.83;101075.03;5078167;28;20011;-59
2022/12/20 07:14:43;;;;;;;;;;;;;;;10.84;83.78;101085.50;5083408;28;19989;-59
2022/12/20 07:17:08;;;;;;;;;;;;;;;10.89;83.39;101070.88;5082313;28;20330;-60
2022/12/20 07:19:35;;;;;;;;;;;;;;;10.92;83.18;101068.72;5078889;28;20378;-61
2022/12/20 07:22:00;;;;;;;;;;;;;;;10.93;82.68;101062.41;5084045;28;19926;-60
2022/12/20 07:24:25;;;;;;;;;;;;;;;10.97;82.63;101069.03;5081723;28;20014;-60
2022/12/20 07:26:50;;;;;;;;;;;;;;;10.99;82.32;101071.56;5082485;28;19920;-57
2022/12/20 07:29:15;;;;;;;;;;;;;;;10.97;82.31;101068.19;5082153;28;19960;-57
2022/12/20 07:31:40;;;;;;;;;;;;;;;10.95;82.45;101064.88;5087307;28;19942;-58
2022/12/20 07:34:06;;;;;;;;;;;;;;;10.93;82.36;101066.88;5080445;28;19916;-59
2022/12/20 07:36:31;;;;;;;;;;;;;;;10.97;81.91;101079.66;5089282;28;19966;-58
2022/12/20 07:38:56;;;;;;;;;;;;;;;10.99;82.12;101079.53;5083211;28;19920;-59
2022/12/20 07:41:22;;;;;;;;;;;;;;;10.98;81.86;101083.16;5081633;28;19958;-60
2022/12/20 07:43:47;;;;;;;;;;;;;;;10.98;81.81;101080.50;5084809;28;20386;-60
2022/12/20 07:46:13;;;;;;;;;;;;;;;11.01;81.73;101085.50;5083988;28;19995;-59
2022/12/20 07:48:39;;;;;;;;;;;;;;;11.00;81.65;101078.53;5083353;28;19951;-60
2022/12/20 07:51:10;;;;;;;;;;;;;;;10.95;81.74;101086.97;5089332;28;20379;-58
2022/12/20 07:53:38;;;;;;;;;;;;;;;10.95;81.47;101094.94;5089222;28;20357;-58
2022/12/20 07:56:05;;;;;;;;;;;;;;;10.98;81.35;101104.41;5087049;28;19931;-58
2022/12/20 07:58:32;;;;;;;;;;;;;;;11.02;80.95;101097.78;5080208;28;20142;-61
2022/12/20 08:00:58;;;;;;;;;;;;;;;11.04;80.94;101101.09;5085565;28;20386;-58
2022/12/20 08:03:26;;;;;;;;;;;;;;;11.03;81.35;101100.28;5082405;28;19919;-59
2022/12/20 08:05:54;;;;;;;;;;;;;;;10.99;81.86;101103.44;5084843;28;19927;-57
2022/12/20 08:08:19;;;;;;;;;;;;;;;10.91;82.11;101098.94;5085999;28;19912;-59
2022/12/20 08:10:46;;;;;;;;;;;;;;;10.77;83.47;101105.75;5082459;28;20007;-57
2022/12/20 08:13:11;;;;;;;;;;;;;;;10.66;83.94;101089.28;5089574;28;20014;-60
2022/12/20 08:15:37;;;;;;;;;;;;;;;10.59;84.86;101097.09;5091308;28;20052;-57
2022/12/20 08:18:02;;;;;;;;;;;;;;;10.50;85.65;101098.09;5088024;28;19947;-59
2022/12/20 08:20:27;;;;;;;;;;;;;;;10.44;85.87;101088.94;5086214;28;19931;-60
2022/12/20 08:22:52;;;;;;;;;;;;;;;10.42;86.64;101092.78;5088715;28;20400;-58
2022/12/20 08:25:18;;;;;;;;;;;;;;;10.39;86.79;101090.41;5090129;28;19916;-58
2022/12/20 08:27:43;;;;;;;;;;;;;;;10.40;87.00;101092.91;5084633;28;19923;-63
2022/12/20 08:30:09;;;;;;;;;;;;;;;10.37;87.23;101093.22;5091180;28;20419;-59
2022/12/20 08:32:35;;;;;;;;;;;;;;;10.36;87.57;101094.22;5080908;28;19912;-56
2022/12/20 08:35:00;;;;;;;;;;;;;;;10.32;88.15;101087.59;5088792;28;19924;-58
2022/12/20 08:37:25;;;;;;;;;;;;;;;10.31;88.44;101098.38;5087548;28;20015;-61
2022/12/20 08:39:50;;;;;;;;;;;;;;;10.29;88.49;101105.66;5093305;28;19989;-59
2022/12/20 08:42:15;;;;;;;;;;;;;;;10.22;89.37;101106.31;5087625;28;19947;-59
2022/12/20 08:44:41;;;;;;;;;;;;;;;10.19;89.84;101106.63;5089272;28;19916;-61
2022/12/20 08:47:06;;;;;;;;;;;;;;;10.13;90.33;101101.97;5083671;28;19916;-61
2022/12/20 08:49:31;;;;;;;;;;;;;;;10.10;90.67;101090.81;5081945;28;19920;-61
2022/12/20 08:51:56;;;;;;;;;;;;;;;10.07;91.13;101091.13;5088261;28;20435;-59
2022/12/20 08:54:21;;;;;;;;;;;;;;;10.07;91.57;101088.47;5086606;28;19955;-59
2022/12/20 08:56:47;;;;;;;;;;;;;;;10.01;91.62;101087.31;5089434;28;19916;-60
2022/12/20 08:59:12;;;;;;;;;;;;;;;10.01;92.30;101091.78;5089794;28;19920;-60
2022/12/20 09:01:38;;;;;;;;;;;;;;;9.99;92.56;101078.69;5085494;28;20272;-58
2022/12/20 09:04:03;;;;;;;;;;;;;;;9.96;92.76;101094.91;5083977;28;19931;-60
2022/12/20 09:06:28;;;;;;;;;;;;;;;9.91;93.12;101079.50;5095445;28;20412;-60
2022/12/20 09:08:54;;;;;;;;;;;;;;;9.87;93.35;101079.97;5085800;28;19966;-57
2022/12/20 09:11:23;;;;;;;;;;;;;;;9.84;93.64;101081.13;5084889;28;19916;-61
2022/12/20 09:13:50;;;;;;;;;;;;;;;9.83;94.05;101086.56;5089603;28;20006;-58
2022/12/20 09:16:17;;;;;;;;;;;;;;;9.81;94.42;101069.97;5088022;28;20505;-58
2022/12/20 09:18:42;;;;;;;;;;;;;;;9.82;94.96;101076.94;5085844;28;19939;-57
2022/12/20 09:21:08;;;;;;;;;;;;;;;9.81;95.15;101072.63;5087964;28;20391;-60
2022/12/20 09:23:34;;;;;;;;;;;;;;;9.79;95.40;101064.00;5086563;28;19912;-59
2022/12/20 09:26:04;;;;;;;;;;;;;;;9.81;95.47;101069.97;5082720;28;19916;-60
2022/12/20 09:28:29;;;;;;;;;;;;;;;9.83;95.82;101068.00;5082144;28;19947;-60
2022/12/20 09:30:59;;;;;;;;;;;;;;;9.82;95.69;101069.81;5085358;28;20315;-59
2022/12/20 09:33:24;;;;;;;;;;;;;;;9.82;95.80;101071.63;5085943;28;20323;-59
2022/12/20 09:35:49;;;;;;;;;;;;;;;9.83;95.98;101075.94;5087870;28;20418;-61
2022/12/20 09:38:14;;;;;;;;;;;;;;;9.82;96.04;101074.28;5082804;28;19920;-58
2022/12/20 09:40:44;;;;;;;;;;;;;;;9.81;96.48;101083.25;5083222;28;19920;-59
2022/12/20 09:43:10;;;;;;;;;;;;;;;9.82;96.55;101074.28;5089483;28;19912;-60
2022/12/20 09:45:36;;;;;;;;;;;;;;;9.80;96.65;101087.72;5090113;28;19912;-60
2022/12/20 09:48:01;;;;;;;;;;;;;;;9.78;96.86;101078.25;5083294;28;19973;-60
2022/12/20 09:50:44;;;;;;;;;;;;;;;9.72;97.48;101082.38;5086207;28;19920;-60
2022/12/20 09:53:16;;;;;;;;;;;;;;;9.67;97.89;101073.25;5085132;28;19912;-61
2022/12/20 09:56:08;;;;;;;;;;;;;;;9.65;98.13;101072.56;5086032;28;20011;-60
2022/12/20 09:58:40;;;;;;;;;;;;;;;9.66;98.55;101076.88;5083565;28;19916;-60
2022/12/20 10:01:22;;;;;;;;;;;;;;;9.67;98.88;101073.25;5086979;28;19916;-59
2022/12/20 10:03:47;;;;;;;;;;;;;;;9.69;98.62;101072.09;5088202;28;19990;-59
2022/12/20 10:06:27;;;;;;;;;;;;;;;9.73;98.86;101070.78;5084287;28;20058;-59
2022/12/20 10:08:57;;;;;;;;;;;;;;;9.77;98.74;101069.47;5086614;28;19923;-58
2022/12/20 10:11:32;;;;;;;;;;;;;;;9.79;99.09;101070.13;5080140;28;19951;-59
2022/12/20 10:13:57;;;;;;;;;;;;;;;9.83;98.96;101068.00;5085521;28;19927;-60
2022/12/20 10:16:25;;;;;;;;;;;;;;;9.88;98.67;101073.69;5080669;28;19916;-57
2022/12/20 10:18:56;;;;;;;;;;;;;;;9.89;98.57;101065.56;5083797;28;19957;-57
2022/12/20 10:21:37;;;;;;;;;;;;;;;9.92;98.59;101059.09;5086621;28;20370;-59
2022/12/20 10:24:04;;;;;;;;;;;;;;;9.94;98.80;101063.25;5087537;28;19916;-62
2022/12/20 10:26:31;;;;;;;;;;;;;;;9.93;98.69;101055.44;5082941;28;19916;-60
2022/12/20 10:28:56;;;;;;;;;;;;;;;9.92;98.77;101067.06;5082630;28;19927;-61
2022/12/20 10:31:21;;;;;;;;;;;;;;;9.94;98.89;101065.06;5085357;28;20303;-58
2022/12/20 10:33:47;;;;;;;;;;;;;;;9.95;99.02;101066.72;5081530;28;20268;-59
2022/12/20 10:36:20;;;;;;;;;;;;;;;9.99;98.65;101056.63;5092115;28;19913;-60
2022/12/20 10:38:47;;;;;;;;;;;;;;;10.02;98.57;101051.00;5086911;28;19916;-59
2022/12/20 10:41:20;;;;;;;;;;;;;;;10.08;98.13;101055.63;5078048;28;20411;-59
2022/12/20 10:43:48;;;;;;;;;;;;;;;10.12;97.97;101052.53;5086623;28;19935;-60
2022/12/20 10:46:15;;;;;;;;;;;;;;;10.14;97.59;101039.94;5077408;28;19961;-60
2022/12/20 10:48:41;;;;;;;;;;;;;;;10.17;97.72;101052.88;5088372;28;19912;-58
2022/12/20 10:51:11;;;;;;;;;;;;;;;10.22;97.34;101044.44;5083132;28;19943;-60
2022/12/20 10:53:48;;;;;;;;;;;;;;;10.24;97.42;101040.63;5085304;28;19923;-60
2022/12/20 10:56:18;;;;;;;;;;;;;;;10.22;97.53;101042.63;5079236;28;19916;-60
2022/12/20 10:58:50;;;;;;;;;;;;;;;10.18;97.88;101033.28;5081439;28;19916;-60
2022/12/20 11:01:17;;;;;;;;;;;;;;;10.14;98.33;101026.66;5080573;28;19964;-60
2022/12/20 11:03:56;;;;;;;;;;;;;;;10.12;98.51;101041.91;5082401;28;19920;-60
2022/12/20 11:06:39;;;;;;;;;;;;;;;10.10;98.88;101033.25;5079294;28;20418;-62
2022/12/20 11:09:19;;;;;;;;;;;;;;;10.07;99.78;101028.28;5081605;28;19924;-60
2022/12/20 11:12:02;;;;;;;;;;;;;;;10.07;99.77;101027.44;5079806;28;19923;-58
2022/12/20 11:14:27;;;;;;;;;;;;;;;10.06;100.00;101023.13;5087956;28;19959;-58
2022/12/20 11:16:53;;;;;;;;;;;;;;;10.06;100.00;101025.78;5082179;28;19954;-60
2022/12/20 11:19:36;;;;;;;;;;;;;;;10.04;100.00;101030.44;5084231;28;20019;-58
2022/12/20 11:22:16;;;;;;;;;;;;;;;10.03;100.00;101019.00;5086531;28;19923;-59
2022/12/20 11:25:21;;;;;;;;;;;;;;;9.99;100.00;101032.75;5079873;28;19927;-60
2022/12/20 11:27:52;;;;;;;;;;;;;;;9.98;100.00;101023.13;5043404;28;19978;-60
2022/12/20 11:30:19;;;;;;;;;;;;;;;9.96;100.00;101023.28;5045100;28;20015;-60
2022/12/20 11:32:59;;;;;;;;;;;;;;;9.91;100.00;101015.81;5061977;28;19923;-62
2022/12/20 11:35:31;;;;;;;;;;;;;;;9.93;100.00;101015.66;5087981;28;19916;-61
2022/12/20 11:38:32;;;;;;;;;;;;;;;9.94;100.00;101012.84;5084197;28;19915;-60
2022/12/20 11:41:12;;;;;;;;;;;;;;;9.91;100.00;101005.22;5053104;28;19936;-60
2022/12/20 11:43:56;;;;;;;;;;;;;;;9.96;100.00;101004.72;5077826;28;19919;-58
2022/12/20 11:46:30;;;;;;;;;;;;;;;9.96;100.00;101003.88;5082369;28;19963;-60
2022/12/20 11:49:14;;;;;;;;;;;;;;;9.94;100.00;101004.88;5076518;28;19924;-60
2022/12/20 11:51:45;;;;;;;;;;;;;;;9.93;100.00;101008.53;5084793;28;19919;-60
2022/12/20 11:54:10;;;;;;;;;;;;;;;9.90;100.00;101006.19;5082179;28;19942;-61
2022/12/20 11:56:36;;;;;;;;;;;;;;;9.87;100.00;101000.41;5085526;28;19946;-60
2022/12/20 11:59:04;;;;;;;;;;;;;;;9.79;100.00;100997.69;5085072;28;19924;-64
2022/12/20 12:01:33;;;;;;;;;;;;;;;9.80;100.00;100996.69;5083676;28;20444;-60
2022/12/20 12:04:13;;;;;;;;;;;;;;;9.77;100.00;100995.22;5083442;28;20393;-60
2022/12/20 12:06:44;;;;;;;;;;;;;;;9.74;100.00;100997.34;5081717;28;20346;-61
2022/12/20 12:09:09;;;;;;;;;;;;;;;9.73;100.00;100988.56;5078108;28;19918;-60
2022/12/20 12:11:37;;;;;;;;;;;;;;;9.72;100.00;100981.59;5079566;28;19924;-61
2022/12/20 12:14:03;;;;;;;;;;;;;;;9.73;100.00;100993.03;5083471;28;19924;-61
2022/12/20 12:16:41;;;;;;;;;;;;;;;9.75;100.00;100991.06;5086224;28;19916;-61
2022/12/20 12:19:08;;;;;;;;;;;;;;;9.71;100.00;100977.28;5090896;28;20403;-63
2022/12/20 12:21:46;;;;;;;;;;;;;;;9.77;100.00;100981.94;5085977;28;19926;-60
2022/12/20 12:24:18;;;;;;;;;;;;;;;9.80;100.00;100986.94;5077674;28;20019;-61
2022/12/20 12:26:43;;;;;;;;;;;;;;;9.81;100.00;100977.97;5082081;28;19931;-61
2022/12/20 12:29:09;;;;;;;;;;;;;;;9.84;100.00;100979.50;5085207;28;19916;-60
2022/12/20 12:31:39;;;;;;;;;;;;;;;9.84;100.00;100987.47;5083589;28;19926;-59
2022/12/20 12:34:23;;;;;;;;;;;;;;;9.85;100.00;100981.16;5081239;28;20686;-60
2022/12/20 12:37:01;;;;;;;;;;;;;;;9.86;100.00;100977.50;5083819;28;19916;-58
2022/12/20 12:39:42;;;;;;;;;;;;;;;9.85;100.00;100976.69;5089497;28;20206;-59
2022/12/20 12:42:13;;;;;;;;;;;;;;;9.85;100.00;100974.03;5085287;28;19920;-61
2022/12/20 12:44:39;;;;;;;;;;;;;;;9.85;100.00;100983.81;5085101;28;19919;-60
2022/12/20 12:47:10;;;;;;;;;;;;;;;9.85;100.00;100981.16;5086947;28;20418;-57
2022/12/20 12:49:36;;;;;;;;;;;;;;;9.84;100.00;100982.97;5080354;28;19935;-60
2022/12/20 12:52:04;;;;;;;;;;;;;;;9.86;100.00;100988.97;5084259;28;20678;-63